BKV weather

Hernando County Airport
Brooksville, Florida, United States

Public forecast

Using degrees Fahrenheit for public forecast. Weather courtesy of forecast.io.

METAR (pilot weather report)

Retrieved 2019/08/25 05:53 UTC (33 minutes ago):

KBKV 250553Z AUTO 08003KT 10SM CLR 26/23 A2996 RMK AO2 SLP141 T02560233 10300 20256 58006

TAF (pilot weather forecast)

Closest forecast is Tampa International Airport, 30.2 nm (55.9 km) S. Retrieved 2019/08/25 06:24 UTC (2 minutes ago):

TAF KTPA 250521Z 2506/2612 03003KT P6SM FEW035 FEW250 FM251100 05005KT P6SM SCT250 FM251800 26007KT P6SM VCTS SCT040CB BKN100 FM260100 VRB05KT P6SM SCT030 SCT250